Time;durP1;ratioP1;P1;durP2;ratioP2;P2;SDS_P1;SDS_P2;PMS_P1;PMS_P2;Temp;Humidity;BMP_temperature;BMP_pressure;BME280_temperature;BME280_humidity;BME280_pressure;Samples;Min_cycle;Max_cycle;Signal;HPM_P1;HPM_P2
2021/03/15 00:02:12;;;;;;;25.77;5.40;;;;;;;6.06;100.00;100536.09;5046073;28;20136;-79
2021/03/15 00:04:38;;;;;;;24.02;4.93;;;;;;;5.95;100.00;100533.09;5028859;28;20063;-78
2021/03/15 00:07:03;;;;;;;16.00;5.55;;;;;;;6.12;100.00;100540.28;5051980;28;20105;-79
2021/03/15 00:09:29;;;;;;;17.58;4.47;;;;;;;6.05;100.00;100524.59;5036092;28;20036;-79
2021/03/15 00:11:54;;;;;;;21.13;5.57;;;;;;;6.18;100.00;100529.31;5030337;28;20368;-80
2021/03/15 00:14:20;;;;;;;17.23;4.93;;;;;;;6.11;100.00;100527.91;5043501;28;20608;-80
2021/03/15 00:16:47;;;;;;;22.40;5.35;;;;;;;6.05;100.00;100524.59;5023407;28;20041;-78
2021/03/15 00:19:13;;;;;;;26.95;5.88;;;;;;;6.05;100.00;100515.72;5047462;28;20033;-80
2021/03/15 00:21:39;;;;;;;14.20;5.65;;;;;;;6.03;100.00;100517.63;5017933;28;20053;-80
2021/03/15 00:24:05;;;;;;;18.98;6.22;;;;;;;6.00;100.00;100512.44;5021285;28;20072;-79
2021/03/15 00:26:30;;;;;;;18.58;5.53;;;;;;;6.08;100.00;100508.47;5036624;28;20409;-80
2021/03/15 00:28:55;;;;;;;16.67;5.93;;;;;;;5.98;100.00;100496.53;5052450;28;20041;-79
2021/03/15 00:31:21;;;;;;;27.15;6.28;;;;;;;6.01;100.00;100499.03;5051910;28;20036;-81
2021/03/15 00:33:46;;;;;;;22.77;5.82;;;;;;;5.96;100.00;100497.53;5038290;28;20025;-80
2021/03/15 00:36:12;;;;;;;20.73;6.32;;;;;;;6.08;100.00;100492.47;5060459;28;20037;-80
2021/03/15 00:38:37;;;;;;;28.65;7.10;;;;;;;6.02;100.00;100484.78;5062972;28;20037;-79
2021/03/15 00:41:02;;;;;;;25.95;6.25;;;;;;;6.16;100.00;100484.09;5061400;28;20025;-82
2021/03/15 00:43:28;;;;;;;21.38;5.70;;;;;;;6.07;100.00;100473.91;5030870;28;20037;-80
2021/03/15 00:45:55;;;;;;;19.67;6.63;;;;;;;5.99;100.00;100471.59;5040931;28;20045;-81
2021/03/15 00:48:21;;;;;;;21.23;6.95;;;;;;;6.02;100.00;100465.28;5039735;28;20033;-79
2021/03/15 00:50:46;;;;;;;23.08;6.38;;;;;;;6.04;100.00;100468.72;5042783;28;20045;-79
2021/03/15 00:53:17;;;;;;;24.10;6.53;;;;;;;6.09;100.00;100459.56;5035247;28;20444;-79
2021/03/15 00:55:42;;;;;;;18.83;6.88;;;;;;;6.13;100.00;100457.59;5055318;28;20033;-80
2021/03/15 00:58:08;;;;;;;22.98;6.78;;;;;;;6.09;100.00;100451.56;5059239;28;20084;-80
2021/03/15 01:00:37;;;;;;;16.92;6.03;;;;;;;6.16;100.00;100456.59;5044758;28;20032;-79
2021/03/15 01:03:23;;;;;;;26.77;6.75;;;;;;;6.09;100.00;100458.69;5058282;28;20037;-81
2021/03/15 01:05:56;;;;;;;19.42;6.85;;;;;;;6.14;100.00;100447.81;5041812;28;20029;-80
2021/03/15 01:08:42;;;;;;;25.33;7.25;;;;;;;6.15;100.00;100450.41;5044956;28;20041;-79
2021/03/15 01:11:16;;;;;;;34.05;8.32;;;;;;;6.09;100.00;100446.25;5041544;28;20175;-80
2021/03/15 01:13:47;;;;;;;21.20;7.07;;;;;;;6.18;100.00;100439.56;5020788;28;20033;-80
2021/03/15 01:16:19;;;;;;;26.15;7.63;;;;;;;6.20;100.00;100436.84;5054552;28;20029;-79
2021/03/15 01:18:46;;;;;;;22.00;7.05;;;;;;;6.03;100.00;100429.72;5037867;28;20042;-79
2021/03/15 01:21:15;;;;;;;23.13;7.13;;;;;;;5.96;100.00;100428.28;5021543;28;20029;-80
2021/03/15 01:23:41;;;;;;;22.23;7.22;;;;;;;6.07;100.00;100432.13;5046773;28;20065;-79
2021/03/15 01:26:06;;;;;;;28.83;8.07;;;;;;;6.07;100.00;100425.94;5037362;28;20591;-79
2021/03/15 01:28:32;;;;;;;27.52;8.27;;;;;;;6.12;100.00;100425.69;5038657;28;20033;-80
2021/03/15 01:30:58;;;;;;;28.92;8.43;;;;;;;6.11;100.00;100421.34;5038044;28;20133;-78
2021/03/15 01:33:23;;;;;;;20.77;7.45;;;;;;;6.06;100.00;100424.19;5056794;28;20635;-81
2021/03/15 01:35:49;;;;;;;19.23;7.00;;;;;;;6.04;100.00;100418.13;5044478;28;20061;-81
2021/03/15 01:38:14;;;;;;;17.67;5.95;;;;;;;6.02;100.00;100414.66;5037799;28;20100;-80
2021/03/15 01:40:42;;;;;;;22.42;6.97;;;;;;;6.03;100.00;100408.38;5024802;28;20044;-79
2021/03/15 01:43:08;;;;;;;19.90;6.20;;;;;;;6.13;100.00;100404.31;5030629;28;20072;-81
2021/03/15 01:45:35;;;;;;;17.30;5.88;;;;;;;6.09;100.00;100397.41;5041434;28;20063;-81
2021/03/15 01:48:02;;;;;;;16.48;5.60;;;;;;;6.07;100.00;100394.81;5061841;28;20493;-82
2021/03/15 01:50:28;;;;;;;18.88;5.75;;;;;;;6.07;100.00;100389.50;5043323;28;20041;-79
2021/03/15 01:52:55;;;;;;;17.50;5.03;;;;;;;6.02;100.00;100386.22;5028686;28;20029;-79
2021/03/15 01:55:22;;;;;;;14.05;5.70;;;;;;;5.96;100.00;100380.34;5059577;28;20052;-80
2021/03/15 01:57:47;;;;;;;12.75;4.88;;;;;;;6.05;100.00;100374.53;5054106;28;20330;-79
2021/03/15 02:00:15;;;;;;;20.45;5.85;;;;;;;6.01;100.00;100375.63;5041464;28;20485;-79
2021/03/15 02:03:02;;;;;;;22.90;5.55;;;;;;;5.89;100.00;100368.25;5023349;28;20061;-81
2021/03/15 02:05:32;;;;;;;17.17;5.22;;;;;;;5.92;100.00;100368.13;5054273;28;20109;-80
2021/03/15 02:07:57;;;;;;;12.07;5.68;;;;;;;6.07;100.00;100365.53;5054065;28;20033;-80
2021/03/15 02:10:24;;;;;;;17.00;5.40;;;;;;;6.02;100.00;100359.56;5042706;28;20485;-81
2021/03/15 02:13:01;;;;;;;21.77;6.03;;;;;;;5.98;100.00;100343.84;5037675;28;20111;-80
2021/03/15 02:15:59;;;;;;;12.55;5.57;;;;;;;5.89;100.00;100345.16;5038876;28;20041;-79
2021/03/15 02:18:40;;;;;;;17.58;6.10;;;;;;;5.92;100.00;100342.34;5045057;28;20041;-79
2021/03/15 02:21:27;;;;;;;18.55;5.72;;;;;;;5.99;100.00;100335.75;5027644;28;20100;-80
2021/03/15 02:24:11;;;;;;;15.88;4.97;;;;;;;5.93;100.00;100328.06;5025362;28;20045;-79
2021/03/15 02:27:10;;;;;;;12.70;4.93;;;;;;;5.98;100.00;100331.38;5016685;28;20047;-80
2021/03/15 02:29:51;;;;;;;15.32;5.50;;;;;;;5.98;100.00;100325.19;5037361;28;20045;-82
2021/03/15 02:32:33;;;;;;;21.30;5.68;;;;;;;5.87;100.00;100322.16;5027071;28;20557;-80
2021/03/15 02:35:05;;;;;;;17.02;6.03;;;;;;;5.81;100.00;100323.34;5027450;28;20025;-79
2021/03/15 02:37:45;;;;;;;15.90;5.77;;;;;;;5.91;100.00;100323.78;5027849;28;20072;-79
2021/03/15 02:40:21;;;;;;;15.68;5.57;;;;;;;5.88;100.00;100319.44;5024180;28;20029;-79
2021/03/15 02:42:52;;;;;;;13.88;5.25;;;;;;;5.95;100.00;100317.34;5021324;28;20037;-81
2021/03/15 02:45:18;;;;;;;16.02;5.32;;;;;;;5.97;100.00;100313.66;5044811;28;20040;-79
2021/03/15 02:47:50;;;;;;;13.82;7.03;;;;;;;5.89;100.00;100315.00;5011324;28;20041;-79
2021/03/15 02:50:16;;;;;;;20.48;6.65;;;;;;;5.90;100.00;100316.72;5029259;28;20389;-79
2021/03/15 02:52:52;;;;;;;13.98;5.38;;;;;;;5.99;100.00;100317.09;5030565;28;20049;-82
2021/03/15 02:55:22;;;;;;;13.13;5.72;;;;;;;5.84;100.00;100317.00;5039665;28;20033;-79
2021/03/15 02:57:50;;;;;;;13.80;5.80;;;;;;;5.90;100.00;100308.72;5027233;28;20741;-82
2021/03/15 03:00:18;;;;;;;14.85;6.13;;;;;;;6.00;100.00;100304.63;5041210;28;20100;-82
2021/03/15 03:02:46;;;;;;;15.52;6.05;;;;;;;5.97;100.00;100312.81;5025656;28;20059;-79
2021/03/15 03:05:14;;;;;;;22.83;6.72;;;;;;;5.98;100.00;100310.06;5044626;28;20041;-80
2021/03/15 03:07:44;;;;;;;16.27;6.22;;;;;;;5.93;100.00;100316.53;5041719;28;20043;-80
2021/03/15 03:10:10;;;;;;;12.85;6.60;;;;;;;5.98;100.00;100314.53;5041033;28;20105;-79
2021/03/15 03:12:38;;;;;;;21.83;7.10;;;;;;;6.01;100.00;100309.03;5026065;28;20445;-82
2021/03/15 03:15:07;;;;;;;19.27;6.75;;;;;;;5.90;100.00;100319.38;5033034;28;20072;-80
2021/03/15 03:17:38;;;;;;;14.95;6.60;;;;;;;5.93;100.00;100313.88;5040443;28;20029;-80
2021/03/15 03:20:06;;;;;;;18.88;7.95;;;;;;;6.01;100.00;100314.34;5026560;28;20040;-82
2021/03/15 03:22:32;;;;;;;16.60;7.70;;;;;;;5.91;100.00;100310.47;5030150;28;20037;-79
2021/03/15 03:24:58;;;;;;;14.90;6.82;;;;;;;6.01;100.00;100309.03;5049302;28;20075;-81
2021/03/15 03:27:24;;;;;;;19.88;7.78;;;;;;;6.05;100.00;100315.91;5042148;28;20041;-81
2021/03/15 03:29:50;;;;;;;18.55;7.22;;;;;;;5.99;100.00;100316.22;5060325;28;20116;-80
2021/03/15 03:32:18;;;;;;;17.70;8.57;;;;;;;6.01;100.00;100325.88;5043837;28;20124;-82
2021/03/15 03:34:43;;;;;;;22.02;8.25;;;;;;;6.00;100.00;100328.59;5029235;28;20033;-80
2021/03/15 03:37:09;;;;;;;15.68;7.95;;;;;;;6.14;100.00;100323.44;5061457;28;20063;-81
2021/03/15 03:39:34;;;;;;;19.00;8.65;;;;;;;6.17;100.00;100328.63;5061288;28;20052;-81
2021/03/15 03:42:00;;;;;;;23.20;8.50;;;;;;;6.14;100.00;100334.09;5063177;28;20029;-82
2021/03/15 03:44:27;;;;;;;26.63;9.00;;;;;;;6.13;100.00;100327.03;5058015;28;20029;-81
2021/03/15 03:46:53;;;;;;;21.63;10.18;;;;;;;6.06;100.00;100326.50;5044639;28;20044;-81
2021/03/15 03:49:19;;;;;;;23.83;9.23;;;;;;;6.24;100.00;100324.66;5048939;28;20033;-81
2021/03/15 03:51:50;;;;;;;25.40;9.20;;;;;;;6.29;100.00;100330.63;5067055;28;20564;-82
2021/03/15 03:54:21;;;;;;;23.83;9.13;;;;;;;6.29;100.00;100327.97;5026990;28;20029;-81
2021/03/15 03:57:05;;;;;;;21.92;11.32;;;;;;;6.22;100.00;100329.22;5049349;28;20029;-81
2021/03/15 03:59:34;;;;;;;22.45;10.27;;;;;;;6.20;100.00;100339.09;5033940;28;20033;-82
2021/03/15 04:02:03;;;;;;;26.17;11.82;;;;;;;6.25;100.00;100338.84;5027632;28;20096;-80
2021/03/15 04:04:37;;;;;;;37.03;12.90;;;;;;;6.24;100.00;100337.97;5062561;28;20033;-80
2021/03/15 04:07:05;;;;;;;22.83;11.73;;;;;;;6.24;100.00;100337.13;5021414;28;20113;-79
2021/03/15 04:09:34;;;;;;;38.47;12.38;;;;;;;6.27;100.00;100342.31;5020574;28;20611;-79
2021/03/15 04:12:04;;;;;;;37.33;14.93;;;;;;;6.35;100.00;100351.63;5043158;28;20038;-79
2021/03/15 04:14:34;;;;;;;133.30;40.83;;;;;;;6.30;100.00;100358.97;5059656;28;20021;-79
2021/03/15 04:17:01;;;;;;;29.13;14.63;;;;;;;6.30;100.00;100358.97;5016178;28;20033;-79
2021/03/15 04:19:34;;;;;;;29.92;15.88;;;;;;;6.32;100.00;100362.44;5034553;28;20048;-80
2021/03/15 04:22:07;;;;;;;23.90;12.68;;;;;;;6.35;100.00;100370.28;5023543;28;20068;-79
2021/03/15 04:24:35;;;;;;;26.50;12.57;;;;;;;6.32;100.00;100383.75;5016391;28;20029;-78
2021/03/15 04:27:01;;;;;;;27.38;13.50;;;;;;;6.32;100.00;100377.56;5025254;28;20029;-79
2021/03/15 04:29:29;;;;;;;28.33;14.00;;;;;;;6.22;100.00;100387.00;5027383;28;20061;-81
2021/03/15 04:31:55;;;;;;;34.55;16.30;;;;;;;6.26;100.00;100384.09;5027841;28;20044;-78
2021/03/15 04:34:22;;;;;;;31.60;15.20;;;;;;;6.32;100.00;100383.75;5050543;28;20057;-80
2021/03/15 04:36:49;;;;;;;23.75;13.65;;;;;;;6.24;100.00;100391.28;5029304;28;20397;-80
2021/03/15 04:39:15;;;;;;;26.65;13.48;;;;;;;6.24;100.00;100401.09;5038990;28;20045;-80
2021/03/15 04:41:41;;;;;;;30.55;13.70;;;;;;;6.22;100.00;100398.53;5061657;28;20055;-78
2021/03/15 04:44:07;;;;;;;33.00;14.90;;;;;;;6.19;100.00;100404.00;5040739;28;20041;-78
2021/03/15 04:46:35;;;;;;;29.60;13.35;;;;;;;6.20;100.00;100411.06;5028182;28;20179;-81
2021/03/15 04:49:06;;;;;;;20.67;13.48;;;;;;;6.17;100.00;100416.56;5039705;28;20041;-80
2021/03/15 04:51:35;;;;;;;24.60;12.10;;;;;;;6.25;100.00;100422.34;5054223;28;20030;-79
2021/03/15 04:54:02;;;;;;;22.48;12.80;;;;;;;6.15;100.00;100423.75;5029125;28;20045;-80
2021/03/15 04:56:28;;;;;;;26.15;13.20;;;;;;;6.15;100.00;100426.41;5037586;28;20033;-81
2021/03/15 04:58:57;;;;;;;26.40;13.30;;;;;;;6.06;100.00;100430.41;5014384;28;20043;-81
2021/03/15 05:01:31;;;;;;;25.05;12.85;;;;;;;6.03;100.00;100433.22;5054264;28;20032;-80
2021/03/15 05:03:58;;;;;;;23.13;11.02;;;;;;;6.06;100.00;100437.53;5036851;28;20127;-80
2021/03/15 05:06:25;;;;;;;20.70;11.50;;;;;;;6.09;100.00;100434.72;5052710;28;20033;-80
2021/03/15 05:08:54;;;;;;;22.65;11.13;;;;;;;6.00;100.00;100436.03;5016521;28;20135;-82
2021/03/15 05:11:24;;;;;;;18.60;10.10;;;;;;;5.98;100.00;100442.41;5056066;28;20048;-80
2021/03/15 05:13:50;;;;;;;17.63;10.93;;;;;;;6.00;100.00;100452.03;5020331;28;20056;-79
2021/03/15 05:16:15;;;;;;;24.92;10.82;;;;;;;6.04;100.00;100447.41;5033025;28;20040;-79
2021/03/15 05:18:42;;;;;;;19.02;10.23;;;;;;;6.11;100.00;100448.81;5016183;28;20029;-78
2021/03/15 05:21:08;;;;;;;18.63;9.30;;;;;;;6.13;100.00;100462.94;5037725;28;20029;-79
2021/03/15 05:23:35;;;;;;;16.90;9.70;;;;;;;5.96;100.00;100473.56;5013459;28;20034;-79
2021/03/15 05:26:01;;;;;;;17.40;9.27;;;;;;;6.00;100.00;100467.13;5046637;28;20033;-80
2021/03/15 05:28:29;;;;;;;16.48;9.70;;;;;;;6.06;100.00;100472.16;5015555;28;20104;-79
2021/03/15 05:31:00;;;;;;;20.67;9.63;;;;;;;5.95;100.00;100477.16;5050723;28;20502;-79
2021/03/15 05:33:31;;;;;;;17.77;9.95;;;;;;;5.92;100.00;100480.84;5050918;28;20041;-79
2021/03/15 05:35:58;;;;;;;16.83;9.30;;;;;;;5.89;100.00;100485.47;5047719;28;20049;-79
2021/03/15 05:38:23;;;;;;;20.58;11.05;;;;;;;5.92;100.00;100485.31;5056154;28;20406;-80
2021/03/15 05:40:52;;;;;;;16.55;9.93;;;;;;;5.96;100.00;100492.22;5035841;28;20025;-79
2021/03/15 05:43:33;;;;;;;17.30;10.23;;;;;;;5.93;100.00;100487.03;5032662;28;20033;-79
2021/03/15 05:46:13;;;;;;;15.18;9.13;;;;;;;6.02;100.00;100498.09;5029509;28;20544;-79
2021/03/15 05:49:08;;;;;;;20.35;10.55;;;;;;;6.01;100.00;100503.50;5024367;28;20025;-80
2021/03/15 05:51:49;;;;;;;19.30;10.35;;;;;;;6.05;100.00;100511.25;5010881;28;20410;-78
2021/03/15 05:54:39;;;;;;;17.65;9.60;;;;;;;6.05;100.00;100510.41;5018847;28;20685;-77
2021/03/15 05:57:28;;;;;;;18.40;10.18;;;;;;;6.02;100.00;100507.91;5014766;28;20045;-78
2021/03/15 06:00:06;;;;;;;17.23;9.95;;;;;;;5.99;100.00;100516.03;5009146;28;20025;-80
2021/03/15 06:03:09;;;;;;;17.50;9.93;;;;;;;5.99;100.00;100524.00;5023689;28;20036;-78
2021/03/15 06:05:36;;;;;;;20.48;9.63;;;;;;;5.95;100.00;100522.44;5033579;28;20717;-78
2021/03/15 06:08:17;;;;;;;20.77;9.85;;;;;;;6.03;100.00;100530.94;5014142;28;20048;-79
2021/03/15 06:11:04;;;;;;;21.00;10.68;;;;;;;5.96;100.00;100527.72;5049458;28;20475;-79
2021/03/15 06:13:35;;;;;;;22.65;10.10;;;;;;;6.00;100.00;100536.41;5047876;28;20470;-81
2021/03/15 06:16:02;;;;;;;24.35;10.25;;;;;;;6.05;100.00;100534.38;5030311;28;20034;-78
2021/03/15 06:18:28;;;;;;;18.40;10.40;;;;;;;5.99;100.00;100540.00;5015206;28;20045;-78
2021/03/15 06:20:54;;;;;;;21.52;10.82;;;;;;;6.03;100.00;100545.13;5053682;28;20063;-79
2021/03/15 06:23:20;;;;;;;22.00;10.95;;;;;;;6.02;100.00;100539.88;5057669;28;20048;-81
2021/03/15 06:25:47;;;;;;;23.98;10.77;;;;;;;6.03;100.00;100546.94;5050527;28;20110;-78
2021/03/15 06:28:14;;;;;;;18.77;10.65;;;;;;;6.03;100.00;100554.91;5033576;28;20048;-78
2021/03/15 06:30:41;;;;;;;21.75;9.98;;;;;;;6.12;100.00;100556.25;5048515;28;20077;-78
2021/03/15 06:33:07;;;;;;;21.40;10.25;;;;;;;6.19;100.00;100563.03;5021546;28;20116;-79
2021/03/15 06:35:38;;;;;;;22.17;10.60;;;;;;;6.19;100.00;100563.88;5049725;28;20045;-80
2021/03/15 06:38:05;;;;;;;24.42;11.45;;;;;;;6.21;100.00;100569.16;5044716;28;20065;-78
2021/03/15 06:40:33;;;;;;;21.40;10.65;;;;;;;6.28;100.00;100570.59;5018598;28;20707;-78
2021/03/15 06:43:02;;;;;;;20.10;10.40;;;;;;;6.31;100.00;100581.06;5038007;28;20029;-79
2021/03/15 06:45:27;;;;;;;33.40;12.25;;;;;;;6.34;100.00;100579.16;5030103;28;20387;-79
2021/03/15 06:47:53;;;;;;;21.55;9.35;;;;;;;6.36;100.00;100587.03;5015123;28;20044;-81
2021/03/15 06:50:19;;;;;;;22.85;10.38;;;;;;;6.39;100.00;100584.25;5031247;28;20033;-79
2021/03/15 06:52:51;;;;;;;24.60;10.40;;;;;;;6.44;100.00;100595.53;5012853;28;20044;-79
2021/03/15 06:55:37;;;;;;;22.05;9.73;;;;;;;6.42;100.00;100594.75;5017283;28;20391;-78
2021/03/15 06:58:25;;;;;;;23.02;9.50;;;;;;;6.46;100.00;100605.19;5006187;28;20128;-80
2021/03/15 07:01:11;;;;;;;21.73;9.38;;;;;;;6.45;100.00;100606.13;5044332;28;20579;-78
2021/03/15 07:03:38;;;;;;;19.48;9.10;;;;;;;6.72;100.00;100605.72;5042063;28;20037;-79
2021/03/15 07:06:04;;;;;;;24.27;9.80;;;;;;;7.03;100.00;100611.22;5035726;28;20533;-79
2021/03/15 07:08:30;;;;;;;23.25;8.90;;;;;;;7.33;100.00;100619.44;5032863;28;20486;-79
2021/03/15 07:10:56;;;;;;;20.65;8.02;;;;;;;7.77;100.00;100633.09;5050041;28;20037;-78
2021/03/15 07:13:26;;;;;;;20.35;8.38;;;;;;;8.29;100.00;100627.53;5029945;28;20115;-79
2021/03/15 07:15:54;;;;;;;18.80;8.75;;;;;;;8.52;100.00;100632.47;5046335;28;20068;-80
2021/03/15 07:18:27;;;;;;;14.20;6.72;;;;;;;8.47;100.00;100637.22;5029579;28;20124;-79
2021/03/15 07:20:58;;;;;;;17.60;7.53;;;;;;;8.34;100.00;100639.72;5025767;28;20032;-80
2021/03/15 07:23:40;;;;;;;17.95;8.10;;;;;;;8.29;100.00;100643.56;5046674;28;20061;-78
2021/03/15 07:26:26;;;;;;;20.38;7.40;;;;;;;8.45;100.00;100645.34;5033285;28;20036;-78
2021/03/15 07:28:52;;;;;;;19.88;8.48;;;;;;;8.75;99.46;100648.06;5041894;28;20037;-78
2021/03/15 07:31:17;;;;;;;19.58;8.10;;;;;;;9.04;97.90;100650.84;5031636;28;20124;-78
2021/03/15 07:33:43;;;;;;;19.30;7.60;;;;;;;9.00;96.76;100652.00;5017038;28;20207;-80
2021/03/15 07:36:11;;;;;;;14.70;7.53;;;;;;;8.68;98.00;100653.88;5036359;28;20036;-78
2021/03/15 07:38:37;;;;;;;19.35;8.48;;;;;;;8.97;97.39;100657.50;5034267;28;20034;-79
2021/03/15 07:41:16;;;;;;;19.42;8.20;;;;;;;9.29;95.03;100664.50;5028189;28;20552;-79
2021/03/15 07:43:42;;;;;;;14.95;7.72;;;;;;;9.38;93.76;100674.66;5016971;28;20095;-78
2021/03/15 07:46:18;;;;;;;18.02;8.15;;;;;;;9.84;91.66;100682.59;5042268;28;20116;-81
2021/03/15 07:48:43;;;;;;;16.60;7.75;;;;;;;9.43;92.50;100688.66;5044498;28;20041;-80
2021/03/15 07:51:10;;;;;;;18.88;8.27;;;;;;;9.13;94.88;100685.13;5042807;28;20033;-79
2021/03/15 07:53:43;;;;;;;15.70;8.48;;;;;;;8.98;96.49;100680.66;5024923;28;20501;-79
2021/03/15 07:56:10;;;;;;;16.35;8.45;;;;;;;8.79;98.24;100681.72;5031827;28;20037;-79
2021/03/15 07:58:40;;;;;;;15.60;8.63;;;;;;;8.84;99.49;100697.50;5010344;28;20038;-80
2021/03/15 08:01:08;;;;;;;18.02;8.55;;;;;;;9.17;98.35;100697.38;5042044;28;20579;-79
2021/03/15 08:03:36;;;;;;;20.75;9.70;;;;;;;9.38;95.77;100701.44;5034002;28;20038;-78
2021/03/15 08:06:02;;;;;;;15.50;8.73;;;;;;;9.84;93.58;100698.69;5034064;28;20043;-80
2021/03/15 08:08:28;;;;;;;20.40;9.05;;;;;;;9.25;95.00;100701.34;5012409;28;20029;-79
2021/03/15 08:10:55;;;;;;;18.77;9.30;;;;;;;8.88;98.49;100707.13;5047949;28;20055;-77
2021/03/15 08:13:23;;;;;;;19.90;9.20;;;;;;;9.02;99.08;100711.66;5047385;28;20072;-79
2021/03/15 08:15:50;;;;;;;19.13;10.30;;;;;;;9.08;97.80;100722.88;5028774;28;20037;-77
2021/03/15 08:18:22;;;;;;;22.40;10.30;;;;;;;8.70;99.40;100722.38;5030654;28;20025;-80
2021/03/15 08:20:51;;;;;;;29.55;11.10;;;;;;;8.40;100.00;100724.09;5012157;28;20167;-80
2021/03/15 08:23:18;;;;;;;21.20;10.82;;;;;;;8.14;100.00;100722.84;5029164;28;20522;-80
2021/03/15 08:25:46;;;;;;;19.27;9.60;;;;;;;7.94;100.00;100731.91;5033630;28;20592;-77
2021/03/15 08:28:12;;;;;;;19.60;10.05;;;;;;;7.78;100.00;100736.31;5021204;28;20041;-78
2021/03/15 08:30:45;;;;;;;22.92;10.10;;;;;;;7.73;100.00;100741.06;5037932;28;20041;-77
2021/03/15 08:33:13;;;;;;;25.73;9.90;;;;;;;7.61;100.00;100758.59;5032037;28;20048;-79
2021/03/15 08:35:39;;;;;;;25.38;11.15;;;;;;;7.72;100.00;100756.22;5036469;28;20045;-78
2021/03/15 08:38:06;;;;;;;20.38;10.95;;;;;;;7.97;100.00;100750.44;5017722;28;20037;-79
2021/03/15 08:40:41;;;;;;;24.13;9.93;;;;;;;7.97;100.00;100749.59;5053466;28;20038;-78
2021/03/15 08:43:19;;;;;;;21.60;10.38;;;;;;;7.93;100.00;100754.25;5021296;28;20033;-78
2021/03/15 08:45:59;;;;;;;30.52;11.98;;;;;;;8.37;100.00;100759.91;5016155;28;20140;-78
2021/03/15 08:48:33;;;;;;;18.52;8.55;;;;;;;8.35;99.58;100755.59;5017739;28;20037;-78
2021/03/15 08:51:00;;;;;;;24.10;9.60;;;;;;;8.22;99.74;100758.03;5036973;28;20045;-78
2021/03/15 08:53:36;;;;;;;18.92;8.35;;;;;;;8.07;100.00;100751.72;5042318;28;20299;-77
2021/03/15 08:56:17;;;;;;;17.15;7.57;;;;;;;8.30;99.71;100771.00;5056166;28;20133;-80
2021/03/15 08:58:52;;;;;;;16.77;7.13;;;;;;;8.16;99.36;100768.19;5027463;28;20050;-77
2021/03/15 09:01:24;;;;;;;17.35;6.75;;;;;;;8.11;99.82;100758.59;5036950;28;20048;-77
2021/03/15 09:03:53;;;;;;;18.90;6.88;;;;;;;8.11;100.00;100763.97;5019647;28;20033;-77
2021/03/15 09:06:31;;;;;;;21.02;7.20;;;;;;;8.02;100.00;100766.28;5054445;28;20729;-79
2021/03/15 09:09:07;;;;;;;16.58;5.50;;;;;;;7.95;99.75;100765.72;5033682;28;20036;-79
2021/03/15 09:11:40;;;;;;;19.98;6.20;;;;;;;7.79;100.00;100767.44;5032136;28;20052;-80
2021/03/15 09:14:24;;;;;;;;;;;;;;;7.86;100.00;100768.88;5040090;28;20527;-79
2021/03/15 09:17:02;;;;;;;19.35;7.30;;;;;;;7.85;100.00;100767.13;5061510;28;20353;-78
2021/03/15 09:19:39;;;;;;;26.60;6.45;;;;;;;7.76;100.00;100774.78;5037692;28;20026;-77
2021/03/15 09:22:26;;;;;;;14.70;6.95;;;;;;;7.92;100.00;100771.22;5052507;28;20036;-78
2021/03/15 09:24:59;;;;;;;16.10;6.13;;;;;;;8.36;100.00;100770.69;5056895;28;20045;-79
2021/03/15 09:27:29;;;;;;;23.05;6.28;;;;;;;9.00;95.68;100770.66;5024374;28;20406;-78
2021/03/15 09:30:00;;;;;;;16.88;5.50;;;;;;;9.21;91.43;100773.91;5022697;28;20405;-78
2021/03/15 09:32:38;;;;;;;18.08;5.45;;;;;;;9.43;91.32;100779.75;5040562;28;20033;-79
2021/03/15 09:35:22;;;;;;;15.52;4.45;;;;;;;9.66;86.24;100781.06;5056713;28;20052;-78
2021/03/15 09:37:56;;;;;;;15.45;5.03;;;;;;;9.51;88.37;100782.81;5027846;28;20032;-80
2021/03/15 09:40:30;;;;;;;11.32;3.75;;;;;;;9.90;85.58;100778.72;5037190;28;20041;-80
2021/03/15 09:42:57;;;;;;;14.50;4.15;;;;;;;9.81;83.64;100790.03;5051180;28;20045;-82
2021/03/15 09:45:27;;;;;;;29.90;4.45;;;;;;;9.98;81.14;100792.53;5019648;28;20080;-79
2021/03/15 09:47:53;;;;;;;15.23;3.38;;;;;;;9.90;82.81;100789.44;5018633;28;20045;-79
2021/03/15 09:50:22;;;;;;;11.55;3.40;;;;;;;9.70;79.94;100777.25;5033755;28;20121;-78
2021/03/15 09:53:12;;;;;;;25.45;3.40;;;;;;;10.12;80.93;100773.81;5019253;28;20037;-80
2021/03/15 09:55:49;;;;;;;16.10;3.53;;;;;;;10.07;79.08;100778.56;5033286;28;20057;-79
2021/03/15 09:58:17;;;;;;;13.13;2.70;;;;;;;9.84;79.91;100777.28;5033205;28;20383;-79
2021/03/15 10:00:54;;;;;;;25.35;3.08;;;;;;;9.65;81.16;100782.00;5033641;28;20496;-79
2021/03/15 10:03:31;;;;;;;17.38;3.47;;;;;;;9.47;82.26;100775.94;5047413;28;20040;-78
2021/03/15 10:06:20;;;;;;;15.55;3.45;;;;;;;9.55;82.47;100783.53;5032154;28;20124;-79
2021/03/15 10:09:17;;;;;;;15.05;3.60;;;;;;;9.50;83.06;100781.13;5017247;28;20041;-80
2021/03/15 10:12:02;;;;;;;21.45;3.95;;;;;;;9.38;81.28;100783.66;5033237;28;20056;-78
2021/03/15 10:14:57;;;;;;;13.82;3.70;;;;;;;9.13;84.07;100787.75;5044943;28;20406;-77
2021/03/15 10:17:29;;;;;;;16.33;4.20;;;;;;;9.03;85.08;100791.03;5036269;28;20029;-79
2021/03/15 10:20:27;;;;;;;11.73;2.80;;;;;;;8.71;89.04;100809.75;5057216;28;20030;-79
2021/03/15 10:22:55;;;;;;;15.38;2.60;;;;;;;8.60;93.00;100820.19;5053329;28;20666;-79
2021/03/15 10:25:22;;;;;;;12.68;2.88;;;;;;;8.30;92.05;100827.16;5031016;28;20071;-78
2021/03/15 10:27:57;;;;;;;15.00;2.72;;;;;;;7.86;94.55;100819.63;5033316;28;20056;-77
2021/03/15 10:30:32;;;;;;;5.25;1.30;;;;;;;7.79;96.22;100822.69;5030505;28;20471;-77
2021/03/15 10:32:59;;;;;;;8.60;1.35;;;;;;;7.97;97.20;100827.09;5017862;28;20029;-79
2021/03/15 10:35:28;;;;;;;5.47;1.08;;;;;;;8.08;95.97;100827.44;5014921;28;20033;-77
2021/03/15 10:38:04;;;;;;;8.20;1.40;;;;;;;8.33;94.96;100821.69;5016008;28;20048;-79
2021/03/15 10:40:40;;;;;;;13.68;1.35;;;;;;;8.38;94.16;100827.66;5016981;28;20037;-78
2021/03/15 10:43:19;;;;;;;10.63;1.23;;;;;;;8.40;93.98;100825.72;5038686;28;20041;-78
2021/03/15 10:45:46;;;;;;;9.50;1.45;;;;;;;8.23;93.08;100836.44;5055428;28;20069;-78
2021/03/15 10:48:12;;;;;;;6.22;2.00;;;;;;;8.41;93.72;100831.00;5029645;28;20056;-77
2021/03/15 10:50:55;;;;;;;7.55;1.77;;;;;;;8.55;91.64;100832.94;5041872;28;20436;-77
2021/03/15 10:53:51;;;;;;;11.35;1.85;;;;;;;8.71;93.93;100833.81;5107820;27;20682;-71
2021/03/15 10:56:23;;;;;;;7.78;1.83;;;;;;;8.79;91.87;100831.59;5078309;28;20040;-71
2021/03/15 10:58:56;;;;;;;8.48;2.20;;;;;;;9.02;92.51;100827.63;5091082;28;20029;-71
2021/03/15 11:01:26;;;;;;;9.57;2.15;;;;;;;9.30;93.50;100822.47;5086743;28;20224;-71
2021/03/15 11:04:10;;;;;;;10.35;1.85;;;;;;;9.33;86.52;100832.13;5066651;28;20032;-71
2021/03/15 11:06:39;;;;;;;12.63;2.08;;;;;;;9.37;86.56;100822.97;5092139;28;20119;-71
2021/03/15 11:09:16;;;;;;;;;;;;;;;9.61;85.87;100826.91;5089409;28;20038;-71
2021/03/15 11:11:52;;;;;;;9.80;3.00;;;;;;;9.76;85.74;100830.47;5091583;28;20376;-71
2021/03/15 11:14:18;;;;;;;12.25;2.65;;;;;;;9.84;83.58;100833.59;5088332;28;20085;-71
2021/03/15 11:17:01;;;;;;;15.45;2.50;;;;;;;9.83;83.25;100825.63;5091431;28;20028;-71
2021/03/15 11:19:35;;;;;;;9.80;1.75;;;;;;;9.84;80.91;100830.91;5083090;28;20459;-70
2021/03/15 11:22:01;;;;;;;19.58;1.85;;;;;;;9.95;81.94;100835.63;5077121;28;20032;-71
2021/03/15 11:24:46;;;;;;;10.30;1.95;;;;;;;10.01;81.34;100832.56;5088667;28;20040;-70
2021/03/15 11:27:32;;;;;;;8.02;1.77;;;;;;;10.12;81.80;100838.16;5101058;28;20039;-70
2021/03/15 11:29:58;;;;;;;8.40;1.40;;;;;;;9.95;78.48;100841.84;5083318;28;20031;-70
2021/03/15 11:32:38;;;;;;;15.23;1.65;;;;;;;9.95;75.54;100846.34;5078834;28;20065;-71
2021/03/15 11:35:21;;;;;;;9.43;1.42;;;;;;;9.96;77.76;100845.38;5071287;28;20031;-71
2021/03/15 11:37:58;;;;;;;12.52;1.52;;;;;;;9.84;76.49;100851.47;5092937;28;20028;-71
2021/03/15 11:40:40;;;;;;;10.38;1.80;;;;;;;9.78;76.96;100849.16;5086322;28;20202;-70